createdAt,value
2023-04-16T00:02:05.516Z,94495.41
2023-04-16T00:04:32.531Z,94498.28
2023-04-16T00:06:59.313Z,94499.06
2023-04-16T00:09:26.172Z,94504.84
2023-04-16T00:11:52.908Z,94506.56
2023-04-16T00:14:20.021Z,94501.97
2023-04-16T00:16:47.230Z,94520.38
2023-04-16T00:19:14.366Z,94524.09
2023-04-16T00:21:41.240Z,94494.25
2023-04-16T00:24:08.106Z,94508.50
2023-04-16T00:26:35.267Z,94504.81
2023-04-16T00:29:02.728Z,94507.47
2023-04-16T00:31:31.297Z,94509.03
2023-04-16T00:33:58.605Z,94513.53
2023-04-16T00:36:27.145Z,94491.09
2023-04-16T00:38:54.795Z,94515.03
2023-04-16T00:41:23.108Z,94502.59
2023-04-16T00:43:50.817Z,94524.38
2023-04-16T00:46:20.092Z,94513.13
2023-04-16T00:48:47.645Z,94524.72
2023-04-16T00:51:14.873Z,94505.03
2023-04-16T00:53:42.036Z,94517.84
2023-04-16T00:56:09.870Z,94495.09
2023-04-16T00:58:36.668Z,94518.50
2023-04-16T01:01:04.052Z,94508.41
2023-04-16T01:03:41.184Z,94516.22
2023-04-16T01:06:08.338Z,94522.06
2023-04-16T01:08:35.639Z,94506.53
2023-04-16T01:11:02.898Z,94492.69
2023-04-16T01:13:30.234Z,94509.72
2023-04-16T01:15:57.364Z,94500.81
2023-04-16T01:18:25.615Z,94496.72
2023-04-16T01:20:52.611Z,94511.03
2023-04-16T01:23:19.829Z,94517.06
2023-04-16T01:25:47.827Z,94503.84
2023-04-16T01:28:15.021Z,94528.94
2023-04-16T01:30:41.848Z,94518.91
2023-04-16T01:33:30.024Z,94505.81
2023-04-16T01:35:56.739Z,94516.22
2023-04-16T01:38:24.050Z,94499.38
2023-04-16T01:40:55.430Z,94521.22
2023-04-16T01:43:22.147Z,94510.69
2023-04-16T01:45:49.707Z,94518.09
2023-04-16T01:48:16.733Z,94528.00
2023-04-16T01:50:43.824Z,94525.31
2023-04-16T01:53:10.687Z,94523.00
2023-04-16T01:55:37.369Z,94523.06
2023-04-16T01:58:04.812Z,94528.41
2023-04-16T02:00:34.902Z,94525.19
2023-04-16T02:03:01.862Z,94539.91
2023-04-16T02:05:29.121Z,94534.50
2023-04-16T02:07:57.800Z,94535.41
2023-04-16T02:10:24.588Z,94517.78
2023-04-16T02:12:51.502Z,94540.25
2023-04-16T02:15:18.786Z,94537.03
2023-04-16T02:17:46.764Z,94538.72
2023-04-16T02:20:13.845Z,94535.34
2023-04-16T02:22:51.426Z,94538.72
2023-04-16T02:25:21.199Z,94542.78
2023-04-16T02:27:48.649Z,94521.63
2023-04-16T02:30:35.158Z,94512.31
2023-04-16T02:33:05.669Z,94534.84
2023-04-16T02:35:33.936Z,94525.44
2023-04-16T02:38:01.472Z,94532.19
2023-04-16T02:40:28.534Z,94548.72
2023-04-16T02:42:55.709Z,94535.94
2023-04-16T02:45:23.404Z,94533.72
2023-04-16T02:47:51.517Z,94541.56
2023-04-16T02:50:18.944Z,94548.63
2023-04-16T02:52:45.976Z,94545.50
2023-04-16T02:55:12.891Z,94535.22
2023-04-16T02:57:39.730Z,94530.09
2023-04-16T03:00:07.821Z,94567.97
2023-04-16T03:02:35.133Z,94549.84
2023-04-16T03:05:03.181Z,94545.75
2023-04-16T03:07:30.632Z,94550.31
2023-04-16T03:09:57.400Z,94562.34
2023-04-16T03:12:24.266Z,94555.47
2023-04-16T03:14:54.767Z,94554.78
2023-04-16T03:17:21.963Z,94564.31
2023-04-16T03:19:50.754Z,94556.72
2023-04-16T03:22:19.438Z,94572.81
2023-04-16T03:24:46.545Z,94565.84
2023-04-16T03:27:13.228Z,94565.84
2023-04-16T03:29:40.055Z,94562.63
2023-04-16T03:32:08.191Z,94537.41
2023-04-16T03:34:37.117Z,94545.41
2023-04-16T03:37:05.765Z,94578.03
2023-04-16T03:39:34.357Z,94561.13
2023-04-16T03:42:02.290Z,94563.41
2023-04-16T03:44:29.958Z,94577.19
2023-04-16T03:46:56.941Z,94581.84
2023-04-16T03:49:23.821Z,94577.25
2023-04-16T03:51:51.278Z,94593.09
2023-04-16T03:54:20.121Z,94594.09
2023-04-16T03:56:53.661Z,94578.97
2023-04-16T03:59:21.045Z,94578.00
2023-04-16T04:01:47.873Z,94582.31
2023-04-16T04:04:15.303Z,94593.41
2023-04-16T04:06:42.114Z,94596.53
2023-04-16T04:09:09.191Z,94594.28
2023-04-16T04:11:36.192Z,94595.66
2023-04-16T04:14:05.481Z,94597.81
2023-04-16T04:16:32.901Z,94591.59
2023-04-16T04:19:00.463Z,94601.06
2023-04-16T04:21:28.758Z,94583.84
2023-04-16T04:23:56.130Z,94595.72
2023-04-16T04:26:23.391Z,94593.28
2023-04-16T04:28:51.272Z,94596.09
2023-04-16T04:31:18.782Z,94587.00
2023-04-16T04:33:46.124Z,94595.59
2023-04-16T04:36:12.817Z,94606.84
2023-04-16T04:38:39.848Z,94582.31
2023-04-16T04:41:06.663Z,94591.91
2023-04-16T04:43:36.718Z,94593.69
2023-04-16T04:46:03.611Z,94601.69
2023-04-16T04:48:32.047Z,94593.72
2023-04-16T04:50:58.900Z,94607.22
2023-04-16T04:53:25.686Z,94617.59
2023-04-16T04:55:55.652Z,94608.25
2023-04-16T04:58:25.736Z,94622.88
2023-04-16T05:00:52.940Z,94620.22
2023-04-16T05:03:21.879Z,94610.72
2023-04-16T05:05:48.867Z,94621.44
2023-04-16T05:08:15.712Z,94624.88
2023-04-16T05:10:42.402Z,94635.44
2023-04-16T05:13:09.117Z,94634.91
2023-04-16T05:15:36.520Z,94643.69
2023-04-16T05:18:03.467Z,94643.94
2023-04-16T05:20:30.688Z,94643.84
2023-04-16T05:22:57.415Z,94643.63
2023-04-16T05:25:24.151Z,94651.22
2023-04-16T05:27:51.561Z,94651.75
2023-04-16T05:30:18.481Z,94659.69
2023-04-16T05:32:45.336Z,94658.69
2023-04-16T05:35:12.343Z,94658.47
2023-04-16T05:37:39.030Z,94648.47
2023-04-16T05:40:07.064Z,94664.06
2023-04-16T05:42:33.793Z,94664.41
2023-04-16T05:45:03.692Z,94681.34
2023-04-16T05:47:30.681Z,94675.88
2023-04-16T05:49:57.507Z,94697.31
2023-04-16T05:52:24.264Z,94685.50
2023-04-16T05:54:50.992Z,94651.16
2023-04-16T05:57:17.689Z,94687.84
2023-04-16T05:59:44.400Z,94679.56
2023-04-16T06:02:11.309Z,94673.25
2023-04-16T06:04:38.398Z,94689.91
2023-04-16T06:07:05.227Z,94686.63
2023-04-16T06:09:32.339Z,94667.09
2023-04-16T06:11:59.830Z,94716.47
2023-04-16T06:14:26.555Z,94692.72
2023-04-16T06:16:53.677Z,94684.25
2023-04-16T06:19:21.002Z,94702.53
2023-04-16T06:21:47.810Z,94687.69
2023-04-16T06:24:14.617Z,94683.28
2023-04-16T06:26:41.300Z,94678.63
2023-04-16T06:29:08.155Z,94687.75
2023-04-16T06:31:35.114Z,94677.91
2023-04-16T06:34:01.880Z,94663.72
2023-04-16T06:36:29.152Z,94695.84
2023-04-16T06:38:55.893Z,94695.94
2023-04-16T06:41:23.714Z,94687.44
2023-04-16T06:43:50.434Z,94676.69
2023-04-16T06:46:17.864Z,94708.44
2023-04-16T06:48:44.682Z,94685.06
2023-04-16T06:51:11.738Z,94702.00
2023-04-16T06:53:38.892Z,94689.56
2023-04-16T06:56:06.390Z,94698.28
2023-04-16T06:58:33.133Z,94692.53
2023-04-16T07:01:00.233Z,94707.28
2023-04-16T07:03:27.683Z,94714.03
2023-04-16T07:05:54.554Z,94716.06
2023-04-16T07:08:21.526Z,94719.88
2023-04-16T07:10:48.473Z,94727.09
2023-04-16T07:13:15.304Z,94702.09
2023-04-16T07:15:42.026Z,94699.53
2023-04-16T07:18:09.571Z,94716.25
2023-04-16T07:20:37.737Z,94707.94
2023-04-16T07:23:04.534Z,94711.91
2023-04-16T07:25:31.277Z,94724.91
2023-04-16T07:27:58.142Z,94699.13
2023-04-16T07:30:25.046Z,94720.56
2023-04-16T07:32:51.945Z,94714.03
2023-04-16T07:35:18.722Z,94699.88
2023-04-16T07:37:45.401Z,94727.31
2023-04-16T07:40:12.381Z,94727.69
2023-04-16T07:42:39.390Z,94697.09
2023-04-16T07:45:06.997Z,94724.19
2023-04-16T07:47:33.769Z,94722.94
2023-04-16T07:50:00.490Z,94703.50
2023-04-16T07:52:27.160Z,94732.06
2023-04-16T07:54:54.333Z,94721.63
2023-04-16T07:57:21.852Z,94743.09
2023-04-16T07:59:48.672Z,94722.88
2023-04-16T08:02:17.074Z,94742.78
2023-04-16T08:04:44.663Z,94727.72
2023-04-16T08:07:11.794Z,94747.81
2023-04-16T08:09:47.756Z,94735.38
2023-04-16T08:12:14.597Z,94725.19
2023-04-16T08:14:41.505Z,94759.09
2023-04-16T08:17:08.509Z,94744.06
2023-04-16T08:19:35.202Z,94688.75
2023-04-16T08:22:02.011Z,94741.31
2023-04-16T08:24:29.056Z,94751.78
2023-04-16T08:27:02.468Z,94750.81
2023-04-16T08:29:38.688Z,94756.84
2023-04-16T08:32:06.323Z,94769.19
2023-04-16T08:34:33.075Z,94763.38
2023-04-16T08:36:59.797Z,94774.03
2023-04-16T08:39:26.609Z,94774.69
2023-04-16T08:41:54.796Z,94758.34
2023-04-16T08:44:27.716Z,94759.81
2023-04-16T08:46:58.237Z,94753.72
2023-04-16T08:49:26.860Z,94744.72
2023-04-16T08:51:55.743Z,94751.00
2023-04-16T08:54:28.718Z,94774.97
2023-04-16T08:56:58.880Z,94785.16
2023-04-16T08:59:26.756Z,94751.03
2023-04-16T09:01:58.137Z,94774.44
2023-04-16T09:04:29.422Z,94774.91
2023-04-16T09:06:59.662Z,94728.94
2023-04-16T09:09:26.908Z,94775.63
2023-04-16T09:11:54.512Z,94794.28
2023-04-16T09:14:22.683Z,94766.13
2023-04-16T09:16:53.259Z,94792.41
2023-04-16T09:19:20.078Z,94759.81
2023-04-16T09:21:48.198Z,94765.41
2023-04-16T09:24:15.049Z,94774.28
2023-04-16T09:26:43.625Z,94741.53
2023-04-16T09:29:10.884Z,94774.25
2023-04-16T09:31:38.064Z,94795.09
2023-04-16T09:34:09.357Z,94771.47
2023-04-16T09:36:36.857Z,94780.66
2023-04-16T09:39:04.124Z,94797.69
2023-04-16T09:41:35.875Z,94766.06
2023-04-16T09:44:06.948Z,94776.81
2023-04-16T09:46:41.051Z,94791.75
2023-04-16T09:49:13.487Z,94783.47
2023-04-16T09:51:44.291Z,94773.44
2023-04-16T09:54:11.278Z,94820.13
2023-04-16T09:56:45.964Z,94821.25
2023-04-16T09:59:24.598Z,94790.06
2023-04-16T10:01:57.291Z,94784.41
2023-04-16T10:04:53.355Z,94768.69
2023-04-16T10:07:21.403Z,94794.28
2023-04-16T10:09:49.722Z,94778.09
2023-04-16T10:12:16.812Z,94779.00
2023-04-16T10:14:43.738Z,94740.00
2023-04-16T10:17:11.031Z,94804.66
2023-04-16T10:19:38.455Z,94764.59
2023-04-16T10:22:05.495Z,94790.75
2023-04-16T10:24:33.974Z,94799.84
2023-04-16T10:27:01.068Z,94792.09
2023-04-16T10:29:29.831Z,94768.47
2023-04-16T10:31:57.882Z,94768.75
2023-04-16T10:34:26.188Z,94785.91
2023-04-16T10:36:54.936Z,94835.44
2023-04-16T10:39:23.828Z,94783.13
2023-04-16T10:41:51.420Z,94774.19
2023-04-16T10:44:19.344Z,94802.03
2023-04-16T10:46:51.798Z,94792.06
2023-04-16T10:49:23.755Z,94758.34
2023-04-16T10:51:59.696Z,94809.69
2023-04-16T10:54:27.778Z,94770.56
2023-04-16T10:56:57.720Z,94792.38
2023-04-16T10:59:26.005Z,94796.81
2023-04-16T11:01:55.868Z,94815.28
2023-04-16T11:04:25.835Z,94828.72
2023-04-16T11:07:32.097Z,94812.22
2023-04-16T11:10:00.065Z,94803.59
2023-04-16T11:12:39.866Z,94828.09
2023-04-16T11:15:11.496Z,94821.09
2023-04-16T11:17:44.208Z,94823.19
2023-04-16T11:20:26.163Z,94768.09
2023-04-16T11:22:55.276Z,94771.59
2023-04-16T11:25:27.074Z,94808.78
2023-04-16T11:27:55.162Z,94813.25
2023-04-16T11:30:41.664Z,94815.28
2023-04-16T11:33:11.484Z,94790.66
2023-04-16T11:35:40.578Z,94812.69
2023-04-16T11:38:08.140Z,94803.91
2023-04-16T11:40:36.882Z,94811.25
2023-04-16T11:43:15.506Z,94794.00
2023-04-16T11:46:12.957Z,94870.00
2023-04-16T11:49:01.154Z,94792.31
2023-04-16T11:51:27.945Z,94810.28
2023-04-16T11:53:56.637Z,94791.22
2023-04-16T11:56:28.490Z,94827.22
2023-04-16T11:59:18.990Z,94831.63
2023-04-16T12:01:48.578Z,94828.34
2023-04-16T12:04:16.889Z,94810.09
2023-04-16T12:07:13.147Z,94813.59
2023-04-16T12:09:43.966Z,94805.38
2023-04-16T12:12:28.381Z,94790.81
2023-04-16T12:14:57.076Z,94810.25
2023-04-16T12:17:24.689Z,94833.34
2023-04-16T12:20:06.113Z,94796.44
2023-04-16T12:22:36.994Z,94830.50
2023-04-16T12:25:11.397Z,94794.72
2023-04-16T12:27:43.438Z,94809.75
2023-04-16T12:30:11.201Z,94794.72
2023-04-16T12:32:38.038Z,94829.78
2023-04-16T12:35:05.509Z,94859.88
2023-04-16T12:37:32.305Z,94808.16
2023-04-16T12:39:59.004Z,94804.75
2023-04-16T12:42:26.456Z,94819.53
2023-04-16T12:44:53.269Z,94824.91
2023-04-16T12:47:20.381Z,94832.66
2023-04-16T12:49:47.056Z,94814.03
2023-04-16T12:52:13.812Z,94835.69
2023-04-16T12:54:41.437Z,94859.81
2023-04-16T12:57:08.224Z,94817.94
2023-04-16T12:59:35.428Z,94825.91
2023-04-16T13:02:02.891Z,94850.28
2023-04-16T13:04:29.764Z,94849.19
2023-04-16T13:06:56.650Z,94838.06
2023-04-16T13:09:23.575Z,94789.28
2023-04-16T13:11:50.560Z,94804.50
2023-04-16T13:14:17.361Z,94794.03
2023-04-16T13:16:44.061Z,94808.69
2023-04-16T13:19:11.975Z,94821.81
2023-04-16T13:21:39.148Z,94801.84
2023-04-16T13:24:06.661Z,94803.41
2023-04-16T13:26:33.392Z,94814.00
2023-04-16T13:29:00.166Z,94807.63
2023-04-16T13:31:27.333Z,94823.69
2023-04-16T13:33:54.558Z,94848.63
2023-04-16T13:36:22.151Z,94806.34
2023-04-16T13:38:48.960Z,94823.94
2023-04-16T13:41:15.851Z,94809.94
2023-04-16T13:43:43.006Z,94821.84
2023-04-16T13:46:09.818Z,94841.19
2023-04-16T13:48:37.360Z,94823.88
2023-04-16T13:51:04.322Z,94837.91
2023-04-16T13:53:31.040Z,94838.16
2023-04-16T13:55:58.259Z,94848.91
2023-04-16T13:58:25.720Z,94841.66
2023-04-16T14:00:52.736Z,94861.50
2023-04-16T14:03:19.528Z,94859.16
2023-04-16T14:05:46.622Z,94857.53
2023-04-16T14:08:14.889Z,94836.53
2023-04-16T14:10:42.347Z,94872.22
2023-04-16T14:13:09.645Z,94862.53
2023-04-16T14:15:36.471Z,94822.84
2023-04-16T14:18:03.927Z,94841.66
2023-04-16T14:20:30.776Z,94855.84
2023-04-16T14:22:57.661Z,94871.13
2023-04-16T14:25:24.774Z,94880.91
2023-04-16T14:27:51.489Z,94837.69
2023-04-16T14:30:18.317Z,94881.69
2023-04-16T14:32:45.069Z,94872.69
2023-04-16T14:35:12.697Z,94838.44
2023-04-16T14:37:39.762Z,94874.69
2023-04-16T14:40:10.313Z,94874.00
2023-04-16T14:42:38.777Z,94857.13
2023-04-16T14:45:06.813Z,94853.19
2023-04-16T14:47:37.948Z,94833.69
2023-04-16T14:50:05.557Z,94875.41
2023-04-16T14:52:32.779Z,94862.69
2023-04-16T14:54:59.843Z,94873.50
2023-04-16T14:57:27.276Z,94826.97
2023-04-16T14:59:54.384Z,94854.84
2023-04-16T15:02:22.077Z,94876.38
2023-04-16T15:04:49.117Z,94869.00
2023-04-16T15:07:15.815Z,94851.13
2023-04-16T15:09:43.017Z,94897.97
2023-04-16T15:12:09.671Z,94873.34
2023-04-16T15:14:36.734Z,94862.94
2023-04-16T15:17:03.659Z,94875.28
2023-04-16T15:19:30.600Z,94856.84
2023-04-16T15:21:59.220Z,94852.88
2023-04-16T15:24:26.710Z,94827.31
2023-04-16T15:26:53.470Z,94891.97
2023-04-16T15:29:20.390Z,94906.13
2023-04-16T15:31:47.960Z,94874.09
2023-04-16T15:34:14.745Z,94875.00
2023-04-16T15:36:42.143Z,94854.53
2023-04-16T15:39:09.645Z,94876.53
2023-04-16T15:41:47.212Z,94874.97
2023-04-16T15:44:27.142Z,94870.78
2023-04-16T15:46:53.935Z,94864.03
2023-04-16T15:49:20.695Z,94896.63
2023-04-16T15:51:47.594Z,94922.81
2023-04-16T15:54:14.590Z,94879.91
2023-04-16T15:56:42.243Z,94912.63
2023-04-16T15:59:09.482Z,94881.53
2023-04-16T16:01:36.548Z,94888.19
2023-04-16T16:04:07.866Z,94843.84
2023-04-16T16:06:35.121Z,94896.72
2023-04-16T16:09:01.871Z,94875.13
2023-04-16T16:11:28.840Z,94865.16
2023-04-16T16:13:55.665Z,94881.13
2023-04-16T16:16:22.528Z,94875.38
2023-04-16T16:18:49.348Z,94883.84
2023-04-16T16:21:16.201Z,94866.13
2023-04-16T16:23:43.714Z,94890.50
2023-04-16T16:26:10.495Z,94884.53
2023-04-16T16:28:41.176Z,94875.53
2023-04-16T16:31:08.642Z,94851.34
2023-04-16T16:33:35.439Z,94891.09
2023-04-16T16:36:03.156Z,94872.63
2023-04-16T16:38:30.063Z,94892.25
2023-04-16T16:40:57.408Z,94899.31
2023-04-16T16:43:24.205Z,94880.00
2023-04-16T16:45:51.329Z,94901.50
2023-04-16T16:48:18.016Z,94877.59
2023-04-16T16:50:45.149Z,94875.59
2023-04-16T16:53:11.877Z,94871.03
2023-04-16T16:55:39.240Z,94887.88
2023-04-16T16:58:06.271Z,94909.81
2023-04-16T17:00:33.195Z,94861.47
2023-04-16T17:03:00.547Z,94874.97
2023-04-16T17:05:27.910Z,94888.34
2023-04-16T17:07:54.682Z,94881.06
2023-04-16T17:10:22.460Z,94868.63
2023-04-16T17:12:51.098Z,94887.81
2023-04-16T17:15:20.578Z,94893.00
2023-04-16T17:17:48.570Z,94898.91
2023-04-16T17:20:16.029Z,94920.44
2023-04-16T17:22:43.184Z,94914.94
2023-04-16T17:25:10.228Z,94858.66
2023-04-16T17:27:37.068Z,94937.13
2023-04-16T17:30:05.867Z,94880.53
2023-04-16T17:32:32.959Z,94877.13
2023-04-16T17:35:01.812Z,94903.88
2023-04-16T17:37:29.508Z,94917.28
2023-04-16T17:39:56.595Z,94922.81
2023-04-16T17:42:24.662Z,94919.47
2023-04-16T17:44:51.527Z,94914.59
2023-04-16T17:47:18.300Z,94918.63
2023-04-16T17:49:45.691Z,94905.03
2023-04-16T17:52:12.444Z,94924.59
2023-04-16T17:54:39.974Z,94904.91
2023-04-16T17:57:06.763Z,94906.19
2023-04-16T17:59:33.479Z,94916.16
2023-04-16T18:02:00.872Z,94912.66
2023-04-16T18:04:28.505Z,94929.22
2023-04-16T18:06:55.401Z,94927.28
2023-04-16T18:09:22.181Z,94937.53
2023-04-16T18:11:48.901Z,94938.34
2023-04-16T18:14:19.932Z,94940.38
2023-04-16T18:16:49.968Z,94952.94
2023-04-16T18:19:16.827Z,94951.97
2023-04-16T18:21:45.032Z,94947.06
2023-04-16T18:24:12.204Z,94930.34
2023-04-16T18:26:40.977Z,94915.88
2023-04-16T18:29:08.192Z,94947.59
2023-04-16T18:31:36.003Z,94948.13
2023-04-16T18:34:02.953Z,94947.25
2023-04-16T18:36:31.268Z,94958.09
2023-04-16T18:39:02.262Z,94948.13
2023-04-16T18:41:31.350Z,94974.00
2023-04-16T18:43:59.252Z,94949.78
2023-04-16T18:46:27.734Z,94975.94
2023-04-16T18:48:54.672Z,94996.00
2023-04-16T18:51:21.440Z,94991.09
2023-04-16T18:53:48.202Z,94985.41
2023-04-16T18:56:15.476Z,95008.69
2023-04-16T18:58:43.232Z,94972.78
2023-04-16T19:01:14.317Z,94976.34
2023-04-16T19:03:41.219Z,94953.97
2023-04-16T19:06:08.175Z,94959.47
2023-04-16T19:08:34.943Z,94987.03
2023-04-16T19:11:01.945Z,94996.22
2023-04-16T19:13:30.668Z,94955.72
2023-04-16T19:16:00.609Z,95002.13
2023-04-16T19:18:27.966Z,94996.06
2023-04-16T19:21:01.764Z,94997.63
2023-04-16T19:23:29.430Z,94985.56
2023-04-16T19:25:56.963Z,95021.63
2023-04-16T19:28:24.785Z,94991.22
2023-04-16T19:30:52.761Z,95013.94
2023-04-16T19:33:19.589Z,94973.78
2023-04-16T19:35:47.392Z,95034.50
2023-04-16T19:38:14.688Z,94980.13
2023-04-16T19:40:46.915Z,95016.56
2023-04-16T19:43:14.653Z,95022.44
2023-04-16T19:45:46.132Z,95026.53
2023-04-16T19:48:13.106Z,95015.94
2023-04-16T19:50:41.315Z,95018.81
2023-04-16T19:53:08.873Z,95018.09
2023-04-16T19:55:35.706Z,95016.56
2023-04-16T19:58:08.569Z,95001.69
2023-04-16T20:00:41.008Z,95017.69
2023-04-16T20:03:07.929Z,95007.03
2023-04-16T20:05:34.822Z,94991.63
2023-04-16T20:08:02.113Z,94997.19
2023-04-16T20:10:31.473Z,95008.53
2023-04-16T20:12:58.512Z,95015.75
2023-04-16T20:15:25.435Z,95010.75
2023-04-16T20:17:52.529Z,95000.38
2023-04-16T20:20:19.327Z,95003.72
2023-04-16T20:22:46.541Z,94992.31
2023-04-16T20:25:15.072Z,95020.50
2023-04-16T20:27:41.792Z,95022.28
2023-04-16T20:30:08.964Z,95015.38
2023-04-16T20:32:36.497Z,95028.16
2023-04-16T20:35:05.176Z,95007.06
2023-04-16T20:37:32.503Z,95010.56
2023-04-16T20:39:59.943Z,94990.03
2023-04-16T20:42:27.666Z,94982.69
2023-04-16T20:44:56.713Z,95013.94
2023-04-16T20:47:24.044Z,95001.81
2023-04-16T20:49:53.013Z,95010.09
2023-04-16T20:52:20.163Z,94995.06
2023-04-16T20:54:47.846Z,95003.34
2023-04-16T20:57:15.414Z,95011.97
2023-04-16T20:59:42.792Z,95006.81
2023-04-16T21:02:09.581Z,95001.00
2023-04-16T21:04:36.505Z,95004.28
2023-04-16T21:07:04.418Z,95011.63
2023-04-16T21:09:31.997Z,95017.22
2023-04-16T21:11:59.304Z,94995.09
2023-04-16T21:14:26.073Z,95014.31
2023-04-16T21:16:52.832Z,95013.31
2023-04-16T21:19:20.051Z,95009.97
2023-04-16T21:21:47.385Z,95010.97
2023-04-16T21:24:14.310Z,95000.84
2023-04-16T21:26:41.160Z,95001.56
2023-04-16T21:29:07.866Z,94996.03
2023-04-16T21:31:34.651Z,95019.03
2023-04-16T21:34:02.380Z,94974.16
2023-04-16T21:36:32.191Z,94985.22
2023-04-16T21:38:59.049Z,95007.41
2023-04-16T21:41:26.578Z,95028.78
2023-04-16T21:43:53.417Z,95020.22
2023-04-16T21:46:20.828Z,95026.56
2023-04-16T21:48:48.525Z,95007.16
2023-04-16T21:51:16.035Z,94998.97
2023-04-16T21:53:43.128Z,95014.84
2023-04-16T21:56:17.307Z,95011.41
2023-04-16T21:58:44.068Z,95000.56
2023-04-16T22:01:11.342Z,94989.75
2023-04-16T22:03:40.453Z,94977.19
2023-04-16T22:06:08.291Z,94991.00
2023-04-16T22:08:35.023Z,95001.53
2023-04-16T22:11:03.368Z,94990.56
2023-04-16T22:13:32.672Z,94999.81
2023-04-16T22:16:03.554Z,94990.50
2023-04-16T22:18:33.068Z,94936.41
2023-04-16T22:21:00.350Z,94966.88
2023-04-16T22:23:28.118Z,95024.94
2023-04-16T22:25:56.027Z,95009.00
2023-04-16T22:28:23.665Z,94992.28
2023-04-16T22:30:50.512Z,95011.47
2023-04-16T22:33:17.781Z,94999.81
2023-04-16T22:35:44.579Z,94997.16
2023-04-16T22:38:11.692Z,95004.13
2023-04-16T22:40:38.440Z,95006.22
2023-04-16T22:43:05.307Z,94979.28
2023-04-16T22:45:32.584Z,95004.78
2023-04-16T22:47:59.402Z,94992.47
2023-04-16T22:50:26.203Z,95006.09
2023-04-16T22:52:53.233Z,94984.28
2023-04-16T22:55:20.061Z,94986.19
2023-04-16T22:57:47.510Z,94981.28
2023-04-16T23:00:18.157Z,94966.34
2023-04-16T23:02:45.667Z,94988.25
2023-04-16T23:05:13.169Z,94948.84
2023-04-16T23:07:40.098Z,94974.06
2023-04-16T23:10:08.743Z,94996.44
2023-04-16T23:12:37.470Z,94969.97
2023-04-16T23:15:06.778Z,94972.19
2023-04-16T23:17:35.105Z,94993.09
2023-04-16T23:20:05.342Z,94968.41
2023-04-16T23:22:33.047Z,94985.47
2023-04-16T23:24:59.734Z,94996.03
2023-04-16T23:27:26.556Z,95000.13
2023-04-16T23:29:53.381Z,95003.53
2023-04-16T23:32:20.166Z,94975.16
2023-04-16T23:34:46.872Z,94998.69
2023-04-16T23:37:13.595Z,94989.28
2023-04-16T23:39:40.334Z,95003.47
2023-04-16T23:42:07.208Z,94972.97
2023-04-16T23:44:34.427Z,94986.59
2023-04-16T23:47:01.789Z,94986.34
2023-04-16T23:49:28.666Z,94978.53
2023-04-16T23:51:55.440Z,95005.03
2023-04-16T23:54:22.171Z,95003.03
2023-04-16T23:56:49.495Z,94997.03
2023-04-16T23:59:16.927Z,94987.09
